createdAt,value
2019-02-02T00:08:44.174Z,9.40
2019-02-02T00:09:44.118Z,10.00
2019-02-02T00:10:44.040Z,9.70
2019-02-02T00:11:44.056Z,10.00
2019-02-02T00:12:44.034Z,9.90
2019-02-02T00:13:44.028Z,10.20
2019-02-02T00:14:45.294Z,10.30
2019-02-02T00:15:44.045Z,9.80
2019-02-02T00:16:44.035Z,10.20
2019-02-02T00:17:44.164Z,10.30
2019-02-02T00:18:43.939Z,9.70
2019-02-02T00:19:43.963Z,9.50
2019-02-02T00:20:43.926Z,10.00
2019-02-02T00:21:43.926Z,10.20
2019-02-02T00:22:43.922Z,9.70
2019-02-02T00:23:43.886Z,9.90
2019-02-02T00:24:43.876Z,9.50
2019-02-02T00:25:43.899Z,9.90
2019-02-02T00:26:43.860Z,9.90
2019-02-02T00:27:43.869Z,10.00
2019-02-02T00:28:43.842Z,9.30
2019-02-02T00:29:43.833Z,10.40
2019-02-02T00:30:43.818Z,9.60
2019-02-02T00:31:43.810Z,9.80
2019-02-02T00:32:43.819Z,9.70
2019-02-02T00:33:43.785Z,9.10
2019-02-02T00:34:43.790Z,9.40
2019-02-02T00:35:43.765Z,8.90
2019-02-02T00:36:43.756Z,9.60
2019-02-02T00:37:43.762Z,9.20
2019-02-02T00:38:43.732Z,9.20
2019-02-02T00:39:43.723Z,9.20
2019-02-02T00:40:43.718Z,9.50
2019-02-02T00:41:43.703Z,9.20
2019-02-02T00:42:43.712Z,10.00
2019-02-02T00:43:43.700Z,9.70
2019-02-02T00:44:43.671Z,9.50
2019-02-02T00:45:43.841Z,9.00
2019-02-02T00:56:20.059Z,9.70
2019-02-02T00:57:19.931Z,9.30
2019-02-02T00:58:20.087Z,8.90
2019-02-02T00:59:19.863Z,8.60
2019-02-02T01:00:20.020Z,8.70
2019-02-02T01:01:19.837Z,8.90
2019-02-02T01:02:19.834Z,8.60
2019-02-02T01:03:19.841Z,9.00
2019-02-02T01:04:19.807Z,8.60
2019-02-02T01:05:19.800Z,8.70
2019-02-02T01:06:19.826Z,8.50
2019-02-02T01:07:19.774Z,8.90
2019-02-02T01:08:19.784Z,8.90
2019-02-02T01:09:19.754Z,8.90
2019-02-02T01:10:19.743Z,8.90
2019-02-02T01:11:19.749Z,8.10
2019-02-02T01:12:19.730Z,8.50
2019-02-02T01:13:19.734Z,8.80
2019-02-02T01:14:19.700Z,8.20
2019-02-02T01:15:19.710Z,8.30
2019-02-02T01:16:19.683Z,8.30
2019-02-02T01:17:19.671Z,8.60
2019-02-02T01:18:19.904Z,8.70
2019-02-02T01:19:19.684Z,8.20
2019-02-02T01:20:19.732Z,8.10
2019-02-02T01:21:19.647Z,8.40
2019-02-02T01:22:19.628Z,8.40
2019-02-02T01:23:19.651Z,8.90
2019-02-02T01:24:19.652Z,8.20
2019-02-02T01:25:19.623Z,8.30
2019-02-02T01:26:19.599Z,8.60
2019-02-02T01:27:19.645Z,8.60
2019-02-02T01:28:19.573Z,8.40
2019-02-02T01:29:19.615Z,7.60
2019-02-02T01:30:19.591Z,8.70
2019-02-02T01:31:19.549Z,8.40
2019-02-02T01:32:19.624Z,8.60
2019-02-02T01:33:19.539Z,8.50
2019-02-02T01:34:19.568Z,8.70
2019-02-02T01:35:19.511Z,8.60
2019-02-02T01:36:19.580Z,7.90
2019-02-02T01:37:19.532Z,8.50
2019-02-02T01:38:19.497Z,8.10
2019-02-02T01:39:19.445Z,8.30
2019-02-02T01:40:27.037Z,8.40
2019-02-02T01:41:19.523Z,8.40
2019-02-02T01:42:19.439Z,8.50
2019-02-02T01:43:19.423Z,8.00
2019-02-02T01:44:19.416Z,8.40
2019-02-02T01:45:26.997Z,8.60
2019-02-02T01:46:19.430Z,8.20
2019-02-02T01:47:19.381Z,8.70
2019-02-02T01:48:19.394Z,8.50
2019-02-02T01:49:19.474Z,8.70
2019-02-02T01:50:19.579Z,8.50
2019-02-02T01:51:19.698Z,8.70
2019-02-02T01:52:19.338Z,8.00
2019-02-02T01:53:19.335Z,8.60
2019-02-02T01:54:19.333Z,9.10
2019-02-02T01:55:19.335Z,8.10
2019-02-02T01:57:29.111Z,8.10
2019-02-02T01:58:29.050Z,8.00
2019-02-02T01:59:29.173Z,8.30
2019-02-02T02:00:28.997Z,8.30
2019-02-02T02:01:28.965Z,8.80
2019-02-02T02:02:28.957Z,8.70
2019-02-02T02:03:28.956Z,8.80
2019-02-02T02:04:28.933Z,9.00
2019-02-02T02:05:28.943Z,8.60
2019-02-02T02:06:28.914Z,8.90
2019-02-02T02:07:28.902Z,8.90
2019-02-02T02:08:36.641Z,9.00
2019-02-02T02:09:28.937Z,9.30
2019-02-02T02:10:28.964Z,9.40
2019-02-02T02:11:29.054Z,10.00
2019-02-02T02:12:29.089Z,9.60
2019-02-02T02:13:28.915Z,9.70
2019-02-02T02:14:28.878Z,10.90
2019-02-02T02:15:28.856Z,10.20
2019-02-02T02:16:28.862Z,10.50
2019-02-02T02:17:28.828Z,10.10
2019-02-02T02:18:28.856Z,9.90
2019-02-02T02:20:38.580Z,9.80
2019-02-02T02:21:38.579Z,9.40
2019-02-02T02:22:41.176Z,9.40
2019-02-02T02:23:38.501Z,8.90
2019-02-02T02:24:38.485Z,8.60
2019-02-02T02:25:38.460Z,9.00
2019-02-02T02:26:38.469Z,9.10
2019-02-02T02:27:38.444Z,9.30
2019-02-02T02:28:38.434Z,10.50
2019-02-02T02:29:45.991Z,9.20
2019-02-02T02:30:38.442Z,10.80
2019-02-02T02:31:46.011Z,10.20
2019-02-02T02:32:38.444Z,9.30
2019-02-02T02:33:45.947Z,9.00
2019-02-02T02:34:38.407Z,9.70
2019-02-02T02:35:45.948Z,9.50
2019-02-02T02:36:38.497Z,9.80
2019-02-02T02:37:38.527Z,10.00
2019-02-02T02:38:38.381Z,9.00
2019-02-02T02:39:38.414Z,9.70
2019-02-02T02:40:38.335Z,9.20
2019-02-02T02:41:38.335Z,9.00
2019-02-02T02:42:38.335Z,9.60
2019-02-02T02:43:38.336Z,8.90
2019-02-02T02:44:38.267Z,8.70
2019-02-02T02:45:38.267Z,9.20
2019-02-02T02:46:38.246Z,9.20
2019-02-02T02:47:38.259Z,9.60
2019-02-02T02:48:38.230Z,9.20
2019-02-02T02:49:45.783Z,9.20
2019-02-02T02:50:38.228Z,9.60
2019-02-02T02:51:38.197Z,9.50
2019-02-02T02:52:45.780Z,9.40
2019-02-02T02:53:38.225Z,9.70
2019-02-02T02:54:38.224Z,10.50
2019-02-02T02:55:38.198Z,10.20
2019-02-02T02:56:38.175Z,10.30
2019-02-02T02:57:38.146Z,9.70
2019-02-02T02:58:41.601Z,11.20
2019-02-02T02:59:38.128Z,10.50
2019-02-02T03:00:38.106Z,11.20
2019-02-02T03:01:38.094Z,10.10
2019-02-02T03:02:38.107Z,10.90
2019-02-02T03:03:38.087Z,10.60
2019-02-02T03:04:38.067Z,10.70
2019-02-02T03:05:38.056Z,10.70
2019-02-02T03:06:38.047Z,10.30
2019-02-02T03:07:38.058Z,11.20
2019-02-02T03:08:38.023Z,10.50
2019-02-02T03:09:38.016Z,10.30
2019-02-02T03:10:38.006Z,10.20
2019-02-02T03:11:37.994Z,10.80
2019-02-02T03:12:38.053Z,11.50
2019-02-02T03:13:37.983Z,10.70
2019-02-02T03:14:37.974Z,10.80
2019-02-02T03:15:37.956Z,10.80
2019-02-02T03:16:37.945Z,10.60
2019-02-02T03:17:37.940Z,10.20
2019-02-02T03:18:37.948Z,10.30
2019-02-02T03:19:37.918Z,10.20
2019-02-02T03:20:37.919Z,10.50
2019-02-02T03:21:37.926Z,10.20
2019-02-02T03:22:37.894Z,10.70
2019-02-02T03:23:38.036Z,10.30
2019-02-02T03:24:37.873Z,10.80
2019-02-02T03:25:37.870Z,10.40
2019-02-02T03:26:37.861Z,11.10
2019-02-02T03:27:37.848Z,10.90
2019-02-02T03:28:37.858Z,10.70
2019-02-02T03:29:37.826Z,10.50
2019-02-02T03:30:37.815Z,10.10
2019-02-02T03:31:37.809Z,9.80
2019-02-02T03:32:37.795Z,10.30
2019-02-02T03:33:37.799Z,11.30
2019-02-02T03:34:37.776Z,10.00
2019-02-02T03:35:37.763Z,10.10
2019-02-02T03:36:37.748Z,9.70
2019-02-02T03:37:37.748Z,10.00
2019-02-02T03:38:37.738Z,10.10
2019-02-02T03:39:37.746Z,10.30
2019-02-02T03:40:37.706Z,9.60
2019-02-02T03:41:37.828Z,9.40
2019-02-02T03:42:37.730Z,9.50
2019-02-02T03:43:37.689Z,9.70
2019-02-02T03:44:37.702Z,10.20
2019-02-02T03:45:40.550Z,10.80
2019-02-02T03:46:37.644Z,10.10
2019-02-02T03:47:37.692Z,10.20
2019-02-02T03:48:37.630Z,10.50
2019-02-02T03:49:37.650Z,10.40
2019-02-02T03:50:37.625Z,9.30
2019-02-02T03:51:37.604Z,10.60
2019-02-02T03:52:37.585Z,9.60
2019-02-02T03:53:37.592Z,10.10
2019-02-02T03:54:37.595Z,9.60
2019-02-02T03:55:37.565Z,9.50
2019-02-02T03:56:37.668Z,9.70
2019-02-02T03:57:37.534Z,9.80
2019-02-02T03:58:37.526Z,10.10
2019-02-02T03:59:37.560Z,10.00
2019-02-02T04:00:37.574Z,10.40
2019-02-02T04:01:37.499Z,9.70
2019-02-02T04:02:37.494Z,10.20
2019-02-02T04:03:37.473Z,10.10
2019-02-02T04:04:37.468Z,10.10
2019-02-02T04:05:37.483Z,9.80
2019-02-02T04:06:37.449Z,9.70
2019-02-02T04:07:37.440Z,9.80
2019-02-02T04:08:37.431Z,9.70
2019-02-02T04:09:37.416Z,10.00
2019-02-02T04:10:37.436Z,9.80
2019-02-02T04:11:37.398Z,9.30
2019-02-02T04:12:37.394Z,10.20
2019-02-02T04:13:37.377Z,9.90
2019-02-02T04:14:37.363Z,9.50
2019-02-02T04:15:37.380Z,9.40
2019-02-02T04:16:37.338Z,9.50
2019-02-02T04:17:37.333Z,9.10
2019-02-02T04:18:37.336Z,9.90
2019-02-02T04:19:37.308Z,9.80
2019-02-02T04:20:37.315Z,9.70
2019-02-02T04:21:37.292Z,10.00
2019-02-02T04:22:37.281Z,10.80
2019-02-02T04:23:37.271Z,9.70
2019-02-02T04:24:37.273Z,9.90
2019-02-02T04:25:37.272Z,10.20
2019-02-02T04:26:37.238Z,9.90
2019-02-02T04:27:37.236Z,9.70
2019-02-02T04:28:37.219Z,10.20
2019-02-02T04:29:37.207Z,10.10
2019-02-02T04:30:37.197Z,9.50
2019-02-02T04:31:37.225Z,9.70
2019-02-02T04:32:37.183Z,9.60
2019-02-02T04:33:37.182Z,9.70
2019-02-02T04:34:37.168Z,9.90
2019-02-02T04:35:37.145Z,9.80
2019-02-02T04:36:37.157Z,10.60
2019-02-02T04:37:38.312Z,10.10
2019-02-02T04:38:37.123Z,9.10
2019-02-02T04:39:37.173Z,9.80
2019-02-02T04:40:37.134Z,10.00
2019-02-02T04:41:37.107Z,9.90
2019-02-02T04:42:37.090Z,10.00
2019-02-02T04:43:37.073Z,10.10
2019-02-02T04:44:37.055Z,10.30
2019-02-02T04:45:37.059Z,9.60
2019-02-02T04:46:37.059Z,9.50
2019-02-02T04:47:37.030Z,10.50
2019-02-02T04:48:37.022Z,9.80
2019-02-02T04:49:37.011Z,9.90
2019-02-02T04:50:37.006Z,10.20
2019-02-02T04:51:37.013Z,10.40
2019-02-02T04:52:36.983Z,9.70
2019-02-02T04:53:36.975Z,9.10
2019-02-02T04:54:36.979Z,9.60
2019-02-02T04:55:36.949Z,9.70
2019-02-02T04:56:36.958Z,9.70
2019-02-02T04:57:36.926Z,10.10
2019-02-02T04:58:36.915Z,10.50
2019-02-02T04:59:36.906Z,10.20
2019-02-02T05:00:36.893Z,9.80
2019-02-02T05:01:36.907Z,10.60
2019-02-02T05:02:36.879Z,10.30
2019-02-02T05:03:36.886Z,9.60
2019-02-02T05:04:36.870Z,10.00
2019-02-02T05:05:36.848Z,10.10
2019-02-02T05:06:36.889Z,10.00
2019-02-02T05:07:36.853Z,10.50
2019-02-02T05:08:36.823Z,11.20
2019-02-02T05:09:36.813Z,10.70
2019-02-02T05:10:36.805Z,10.60
2019-02-02T05:11:36.820Z,11.40
2019-02-02T05:12:36.796Z,11.60
2019-02-02T05:13:36.765Z,11.20
2019-02-02T05:14:36.767Z,11.20
2019-02-02T05:15:36.767Z,12.10
2019-02-02T05:16:36.749Z,13.90
2019-02-02T05:17:36.743Z,13.00
2019-02-02T05:18:36.713Z,13.80
2019-02-02T05:19:36.718Z,15.00
2019-02-02T05:20:36.746Z,13.50
2019-02-02T05:21:36.722Z,14.00
2019-02-02T05:22:36.710Z,15.90
2019-02-02T05:23:36.700Z,13.60
2019-02-02T05:24:36.657Z,12.60
2019-02-02T05:25:36.648Z,13.20
2019-02-02T05:26:36.634Z,13.00
2019-02-02T05:27:36.642Z,12.70
2019-02-02T05:28:36.614Z,12.70
2019-02-02T05:29:41.459Z,12.30
2019-02-02T05:30:37.604Z,13.80
2019-02-02T05:31:36.611Z,12.60
2019-02-02T05:32:36.591Z,12.70
2019-02-02T05:33:36.563Z,12.90
2019-02-02T05:34:36.554Z,12.50
2019-02-02T05:35:36.573Z,12.80
2019-02-02T05:36:36.534Z,12.20
2019-02-02T05:37:36.525Z,12.30
2019-02-02T05:38:36.517Z,12.30
2019-02-02T05:39:36.503Z,11.90
2019-02-02T05:40:36.521Z,12.30
2019-02-02T05:41:36.484Z,13.00
2019-02-02T05:42:36.476Z,13.00
2019-02-02T05:43:44.026Z,13.40
2019-02-02T05:44:36.515Z,13.10
2019-02-02T05:45:36.459Z,13.60
2019-02-02T05:46:36.447Z,13.70
2019-02-02T05:47:36.431Z,13.80
2019-02-02T05:48:36.412Z,13.50
2019-02-02T05:49:36.404Z,12.70
2019-02-02T05:50:36.493Z,12.30
2019-02-02T05:51:36.516Z,12.60
2019-02-02T05:52:36.426Z,12.20
2019-02-02T05:53:36.366Z,11.90
2019-02-02T05:54:36.358Z,11.90
2019-02-02T05:55:36.391Z,12.70
2019-02-02T05:56:36.343Z,11.90
2019-02-02T05:57:36.330Z,11.00
2019-02-02T05:58:36.337Z,12.00
2019-02-02T05:59:36.312Z,11.70
2019-02-02T06:00:36.341Z,11.90
2019-02-02T06:01:36.313Z,12.00
2019-02-02T06:02:36.271Z,11.10
2019-02-02T06:03:36.263Z,10.20
2019-02-02T06:04:36.249Z,11.70
2019-02-02T06:05:36.254Z,10.90
2019-02-02T06:06:36.255Z,10.50
2019-02-02T06:07:36.225Z,10.60
2019-02-02T06:08:36.218Z,10.30
2019-02-02T06:09:36.213Z,10.00
2019-02-02T06:10:36.197Z,10.30
2019-02-02T06:11:36.215Z,10.70
2019-02-02T06:12:43.764Z,11.10
2019-02-02T06:13:36.192Z,11.30
2019-02-02T06:14:36.168Z,9.70
2019-02-02T06:15:36.154Z,9.90
2019-02-02T06:16:36.200Z,10.00
2019-02-02T06:17:36.139Z,9.60
2019-02-02T06:18:43.664Z,10.30
2019-02-02T06:19:36.128Z,10.00
2019-02-02T06:20:43.699Z,9.80
2019-02-02T06:21:36.116Z,10.00
2019-02-02T06:22:36.071Z,9.60
2019-02-02T06:23:36.140Z,9.80
2019-02-02T06:24:36.054Z,9.80
2019-02-02T06:25:36.041Z,9.30
2019-02-02T06:26:36.061Z,9.20
2019-02-02T06:27:36.037Z,9.80
2019-02-02T06:28:36.005Z,8.80
2019-02-02T06:29:36.010Z,9.40
2019-02-02T06:30:35.984Z,10.00
2019-02-02T06:31:36.007Z,10.00
2019-02-02T06:32:35.965Z,9.70
2019-02-02T06:33:35.963Z,9.50
2019-02-02T06:34:35.950Z,9.30
2019-02-02T06:35:35.937Z,9.70
2019-02-02T06:36:35.944Z,9.70
2019-02-02T06:37:35.923Z,9.00
2019-02-02T06:38:35.903Z,9.50
2019-02-02T06:39:35.896Z,9.10
2019-02-02T06:40:35.882Z,9.20
2019-02-02T06:41:35.891Z,9.20
2019-02-02T06:42:35.862Z,9.20
2019-02-02T06:43:35.860Z,9.30
2019-02-02T06:44:35.844Z,9.20
2019-02-02T06:45:35.833Z,8.60
2019-02-02T06:46:43.322Z,8.80
2019-02-02T06:47:36.827Z,9.30
2019-02-02T06:48:35.802Z,8.80
2019-02-02T06:49:35.795Z,8.80
2019-02-02T06:50:35.785Z,9.10
2019-02-02T06:51:35.816Z,9.20
2019-02-02T06:52:35.761Z,8.80
2019-02-02T06:53:35.753Z,9.10
2019-02-02T06:54:35.741Z,8.90
2019-02-02T06:55:35.746Z,9.00
2019-02-02T06:56:35.720Z,8.90
2019-02-02T06:57:35.778Z,9.40
2019-02-02T06:58:35.703Z,9.30
2019-02-02T06:59:35.696Z,10.10
2019-02-02T07:00:35.679Z,9.20
2019-02-02T07:01:35.671Z,9.80
2019-02-02T07:02:35.684Z,9.80
2019-02-02T07:03:35.650Z,10.40
2019-02-02T07:04:35.649Z,10.10
2019-02-02T07:05:35.629Z,9.30
2019-02-02T07:06:35.619Z,9.40
2019-02-02T07:07:35.611Z,10.00
2019-02-02T07:08:35.621Z,9.80
2019-02-02T07:09:35.589Z,9.80
2019-02-02T07:10:35.579Z,9.80
2019-02-02T07:11:35.580Z,9.60
2019-02-02T07:12:35.566Z,9.90
2019-02-02T07:13:36.191Z,9.40
2019-02-02T07:14:35.545Z,9.90
2019-02-02T07:15:35.540Z,9.60
2019-02-02T07:16:35.527Z,9.30
2019-02-02T07:17:35.519Z,10.20
2019-02-02T07:18:35.601Z,9.50
2019-02-02T07:19:35.503Z,9.40
2019-02-02T07:20:35.486Z,10.10
2019-02-02T07:21:35.477Z,9.50
2019-02-02T07:22:35.457Z,8.90
2019-02-02T07:23:35.477Z,8.80
2019-02-02T07:24:35.438Z,9.30
2019-02-02T07:25:35.426Z,9.70
2019-02-02T07:26:35.417Z,10.00
2019-02-02T07:27:35.440Z,10.40
2019-02-02T07:28:42.999Z,10.80
2019-02-02T07:29:35.406Z,10.80
2019-02-02T07:30:42.935Z,10.60
2019-02-02T07:31:35.416Z,10.00
2019-02-02T07:32:35.391Z,10.10
2019-02-02T07:33:42.928Z,10.10
2019-02-02T07:34:35.399Z,9.90
2019-02-02T07:35:42.911Z,10.40
2019-02-02T07:36:35.331Z,9.90
2019-02-02T07:37:42.930Z,10.50
2019-02-02T07:38:35.344Z,9.70
2019-02-02T07:39:35.385Z,9.90
2019-02-02T07:40:35.292Z,10.50
2019-02-02T07:41:35.283Z,9.70
2019-02-02T07:42:35.267Z,10.10
2019-02-02T07:43:35.267Z,10.10
2019-02-02T07:44:35.258Z,9.60
2019-02-02T07:45:42.807Z,10.60
2019-02-02T07:46:35.229Z,10.30
2019-02-02T07:47:45.164Z,9.90
2019-02-02T07:48:35.237Z,10.20
2019-02-02T07:49:35.230Z,9.90
2019-02-02T07:50:35.241Z,9.80
2019-02-02T07:51:35.167Z,9.60
2019-02-02T07:52:35.156Z,10.10
2019-02-02T07:53:35.180Z,9.60
2019-02-02T07:54:35.176Z,10.00
2019-02-02T07:55:35.152Z,9.70
2019-02-02T07:56:35.115Z,9.90
2019-02-02T07:57:35.133Z,9.50
2019-02-02T07:58:35.103Z,10.20
2019-02-02T07:59:35.094Z,10.00
2019-02-02T08:00:40.863Z,10.20
2019-02-02T08:01:36.066Z,10.10
2019-02-02T08:02:35.056Z,10.00
2019-02-02T08:03:35.076Z,11.20
2019-02-02T08:04:35.043Z,11.30
2019-02-02T08:05:35.066Z,10.00
2019-02-02T08:06:35.049Z,10.60
2019-02-02T08:07:35.017Z,10.30
2019-02-02T08:08:35.000Z,10.40
2019-02-02T08:09:35.012Z,10.20
2019-02-02T08:10:35.019Z,11.20
2019-02-02T08:11:34.970Z,10.10
2019-02-02T08:12:35.008Z,9.40
2019-02-02T08:13:34.943Z,10.00
2019-02-02T08:14:42.535Z,10.00
2019-02-02T08:15:34.958Z,10.70
2019-02-02T08:16:42.452Z,11.10
2019-02-02T08:17:34.969Z,10.70
2019-02-02T08:18:34.930Z,10.10
2019-02-02T08:19:34.921Z,10.10
2019-02-02T08:20:34.906Z,10.10
2019-02-02T08:21:42.438Z,9.90
2019-02-02T08:22:34.911Z,9.80
2019-02-02T08:23:42.462Z,10.10
2019-02-02T08:24:34.906Z,9.60
2019-02-02T08:25:34.959Z,9.60
2019-02-02T08:26:34.856Z,9.50
2019-02-02T08:27:34.848Z,9.40
2019-02-02T08:28:34.797Z,9.30
2019-02-02T08:29:34.788Z,9.50
2019-02-02T08:30:35.810Z,9.30
2019-02-02T08:31:34.789Z,9.50
2019-02-02T08:32:34.755Z,10.00
2019-02-02T08:33:34.785Z,10.10
2019-02-02T08:34:34.751Z,9.80
2019-02-02T08:35:34.724Z,10.30
2019-02-02T08:36:34.726Z,10.40
2019-02-02T08:37:42.296Z,10.30
2019-02-02T08:38:34.734Z,10.10
2019-02-02T08:39:42.241Z,11.10
2019-02-02T08:40:34.750Z,10.30
2019-02-02T08:41:42.251Z,10.30
2019-02-02T08:42:34.711Z,9.90
2019-02-02T08:43:34.764Z,10.50
2019-02-02T08:44:42.168Z,9.90
2019-02-02T08:45:34.625Z,10.80
2019-02-02T08:46:34.619Z,10.60
2019-02-02T08:47:34.628Z,11.00
2019-02-02T08:48:34.585Z,10.70
2019-02-02T08:49:34.579Z,10.50
2019-02-02T08:50:34.572Z,10.30
2019-02-02T08:51:34.570Z,10.50
2019-02-02T08:52:34.559Z,10.40
2019-02-02T08:53:42.098Z,10.60
2019-02-02T08:54:34.544Z,10.70
2019-02-02T08:55:34.669Z,11.20
2019-02-02T08:56:42.140Z,11.00
2019-02-02T08:57:34.565Z,11.00
2019-02-02T08:58:34.519Z,11.50
2019-02-02T08:59:34.511Z,11.20
2019-02-02T09:00:34.470Z,11.70
2019-02-02T09:01:34.448Z,11.30
2019-02-02T09:02:34.498Z,11.00
2019-02-02T09:03:34.434Z,10.90
2019-02-02T09:04:34.471Z,10.80
2019-02-02T09:05:34.435Z,11.30
2019-02-02T09:06:39.015Z,11.10
2019-02-02T09:07:38.417Z,11.30
2019-02-02T09:08:34.384Z,11.10
2019-02-02T09:09:34.369Z,10.70
2019-02-02T09:10:34.367Z,11.80
2019-02-02T09:11:34.360Z,12.10
2019-02-02T09:12:34.377Z,11.30
2019-02-02T09:13:41.878Z,11.80
2019-02-02T09:14:34.335Z,11.80
2019-02-02T09:15:41.888Z,12.40
2019-02-02T09:16:34.340Z,11.00
2019-02-02T09:17:34.407Z,11.60
2019-02-02T09:18:34.357Z,11.10
2019-02-02T09:19:34.348Z,11.30
2019-02-02T09:20:34.256Z,11.40
2019-02-02T09:21:43.016Z,11.50
2019-02-02T09:22:34.331Z,12.40
2019-02-02T09:23:34.343Z,13.00
2019-02-02T09:24:34.350Z,12.20
2019-02-02T09:25:34.206Z,12.40
2019-02-02T09:26:34.206Z,12.10
2019-02-02T09:27:34.186Z,11.30
2019-02-02T09:28:34.210Z,11.50
2019-02-02T09:29:34.163Z,11.40
2019-02-02T09:30:34.154Z,11.00
2019-02-02T09:31:34.172Z,11.10
2019-02-02T09:32:34.147Z,11.70
2019-02-02T09:33:34.178Z,12.40
2019-02-02T09:34:34.113Z,10.30
2019-02-02T09:35:34.105Z,10.60
2019-02-02T09:36:34.093Z,12.10
2019-02-02T09:37:34.082Z,11.50
2019-02-02T09:38:34.099Z,11.40
2019-02-02T09:39:34.063Z,10.80
2019-02-02T09:40:34.052Z,11.20
2019-02-02T09:41:34.050Z,10.90
2019-02-02T09:42:34.031Z,11.90
2019-02-02T09:43:34.040Z,11.70
2019-02-02T09:44:34.014Z,11.30
2019-02-02T09:45:34.000Z,13.40
2019-02-02T09:46:34.059Z,12.30
2019-02-02T09:47:41.555Z,11.70
2019-02-02T09:48:34.034Z,11.60
2019-02-02T09:49:34.036Z,11.70
2019-02-02T09:50:33.972Z,11.60
2019-02-02T09:51:33.945Z,12.70
2019-02-02T09:52:33.947Z,12.90
2019-02-02T09:53:33.987Z,12.40
2019-02-02T09:54:33.913Z,14.50
2019-02-02T09:55:33.927Z,13.60
2019-02-02T09:56:33.896Z,11.70
2019-02-02T09:57:36.715Z,12.90
2019-02-02T09:58:33.878Z,13.30
2019-02-02T09:59:33.927Z,12.00
2019-02-02T10:00:33.956Z,11.90
2019-02-02T10:01:33.842Z,12.00
2019-02-02T10:02:33.833Z,13.30
2019-02-02T10:03:33.821Z,13.50
2019-02-02T10:04:33.842Z,13.00
2019-02-02T10:05:33.805Z,13.90
2019-02-02T10:06:33.796Z,13.70
2019-02-02T10:07:33.783Z,13.90
2019-02-02T10:08:33.843Z,13.80
2019-02-02T10:09:33.778Z,14.00
2019-02-02T10:10:33.749Z,13.20
2019-02-02T10:11:33.742Z,13.50
2019-02-02T10:12:33.757Z,11.40
2019-02-02T10:13:33.781Z,12.90
2019-02-02T10:14:33.778Z,13.20
2019-02-02T10:15:33.714Z,13.20
2019-02-02T10:16:33.710Z,12.90
2019-02-02T10:17:33.701Z,13.00
2019-02-02T10:18:33.723Z,12.40
2019-02-02T10:19:33.676Z,12.80
2019-02-02T10:20:33.708Z,11.80
2019-02-02T10:21:33.661Z,12.50
2019-02-02T10:22:33.638Z,13.10
2019-02-02T10:23:33.628Z,12.80
2019-02-02T10:24:33.657Z,12.00
2019-02-02T10:25:33.604Z,13.60
2019-02-02T10:26:33.624Z,13.20
2019-02-02T10:27:33.583Z,12.60
2019-02-02T10:28:33.584Z,12.70
2019-02-02T10:29:33.574Z,12.60
2019-02-02T10:30:33.582Z,12.00
2019-02-02T10:31:39.668Z,12.30
2019-02-02T10:32:34.537Z,11.80
2019-02-02T10:33:33.520Z,11.30
2019-02-02T10:34:33.512Z,11.30
2019-02-02T10:35:33.526Z,12.10
2019-02-02T10:36:33.499Z,11.90
2019-02-02T10:37:33.479Z,11.80
2019-02-02T10:38:33.493Z,11.70
2019-02-02T10:39:33.466Z,11.50
2019-02-02T10:40:33.496Z,11.40
2019-02-02T10:41:33.445Z,10.40
2019-02-02T10:42:33.431Z,12.40
2019-02-02T10:43:33.459Z,11.40
2019-02-02T10:44:33.411Z,11.50
2019-02-02T10:45:33.415Z,11.20
2019-02-02T10:46:41.047Z,10.90
2019-02-02T10:47:33.388Z,11.00
2019-02-02T10:48:40.983Z,10.30
2019-02-02T10:49:33.386Z,10.10
2019-02-02T10:50:33.402Z,10.50
2019-02-02T10:51:40.938Z,10.40
2019-02-02T10:52:33.397Z,9.70
2019-02-02T10:53:40.900Z,10.10
2019-02-02T10:54:33.368Z,11.00
2019-02-02T10:55:40.898Z,10.80
2019-02-02T10:56:33.309Z,11.70
2019-02-02T10:57:40.842Z,12.00
2019-02-02T10:58:33.288Z,12.20
2019-02-02T10:59:33.304Z,12.40
2019-02-02T11:00:40.850Z,11.60
2019-02-02T11:01:33.269Z,11.30
2019-02-02T11:02:40.781Z,12.00
2019-02-02T11:03:33.228Z,12.10
2019-02-02T11:04:33.269Z,13.10
2019-02-02T11:05:33.271Z,12.10
2019-02-02T11:06:34.274Z,13.50
2019-02-02T11:07:33.185Z,13.80
2019-02-02T11:08:33.291Z,13.20
2019-02-02T11:09:33.163Z,12.70
2019-02-02T11:10:33.162Z,13.90
2019-02-02T11:11:33.271Z,12.80
2019-02-02T11:12:33.230Z,13.50
2019-02-02T11:13:33.148Z,14.80
2019-02-02T11:14:33.220Z,14.70
2019-02-02T11:15:33.106Z,15.40
2019-02-02T11:16:33.146Z,15.10
2019-02-02T11:17:33.215Z,14.60
2019-02-02T11:18:33.226Z,15.60
2019-02-02T11:19:33.072Z,15.30
2019-02-02T11:20:33.112Z,15.40
2019-02-02T11:21:33.196Z,16.30
2019-02-02T11:22:33.047Z,14.80
2019-02-02T11:23:33.092Z,14.30
2019-02-02T11:24:33.061Z,15.10
2019-02-02T11:25:33.002Z,15.40
2019-02-02T11:26:33.005Z,16.10
2019-02-02T11:27:33.109Z,16.50
2019-02-02T11:28:33.026Z,17.50
2019-02-02T11:29:32.972Z,17.80
2019-02-02T11:30:33.041Z,19.70
2019-02-02T11:31:32.961Z,18.30
2019-02-02T11:32:32.959Z,17.00
2019-02-02T11:33:32.931Z,17.50
2019-02-02T11:34:32.949Z,17.60
2019-02-02T11:35:32.899Z,18.80
2019-02-02T11:36:32.897Z,16.90
2019-02-02T11:37:32.912Z,17.70
2019-02-02T11:38:32.877Z,18.90
2019-02-02T11:39:32.867Z,20.10
2019-02-02T11:40:32.854Z,18.70
2019-02-02T11:41:32.842Z,19.30
2019-02-02T11:42:32.825Z,18.90
2019-02-02T11:43:32.961Z,20.90
2019-02-02T11:44:32.816Z,22.70
2019-02-02T11:45:32.823Z,22.60
2019-02-02T11:46:32.792Z,21.50
2019-02-02T11:47:32.787Z,20.20
2019-02-02T11:48:32.810Z,21.30
2019-02-02T11:49:32.800Z,21.00
2019-02-02T11:50:32.759Z,20.20
2019-02-02T11:51:32.737Z,20.90
2019-02-02T11:52:32.741Z,21.10
2019-02-02T11:53:32.779Z,21.60
2019-02-02T11:54:32.719Z,21.80
2019-02-02T11:55:32.747Z,20.40
2019-02-02T11:56:32.692Z,20.80
2019-02-02T11:57:32.683Z,20.60
2019-02-02T11:58:32.701Z,22.20
2019-02-02T11:59:32.699Z,20.30
2019-02-02T12:00:32.687Z,21.60
2019-02-02T12:01:32.635Z,21.70
2019-02-02T12:02:32.632Z,22.40
2019-02-02T12:03:32.653Z,22.80
2019-02-02T12:04:32.615Z,22.30
2019-02-02T12:05:32.608Z,22.20
2019-02-02T12:06:32.615Z,22.40
2019-02-02T12:07:32.578Z,22.70
2019-02-02T12:08:32.602Z,22.50
2019-02-02T12:09:32.560Z,21.20
2019-02-02T12:10:32.557Z,22.50
2019-02-02T12:11:32.545Z,23.10
2019-02-02T12:12:32.546Z,21.80
2019-02-02T12:13:32.536Z,23.40
2019-02-02T12:14:32.526Z,24.70
2019-02-02T12:15:34.003Z,25.50
2019-02-02T12:16:32.483Z,28.10
2019-02-02T12:17:32.477Z,28.60
2019-02-02T12:18:32.468Z,28.00
2019-02-02T12:19:32.482Z,27.10
2019-02-02T12:20:33.305Z,29.80
2019-02-02T12:21:32.447Z,27.10
2019-02-02T12:22:32.425Z,26.30
2019-02-02T12:23:32.416Z,25.40
2019-02-02T12:24:32.468Z,24.90
2019-02-02T12:25:32.402Z,24.50
2019-02-02T12:26:32.378Z,24.90
2019-02-02T12:27:32.378Z,24.50
2019-02-02T12:28:32.373Z,24.20
2019-02-02T12:29:32.371Z,25.10
2019-02-02T12:30:32.376Z,24.30
2019-02-02T12:31:32.334Z,23.90
2019-02-02T12:32:32.321Z,24.40
2019-02-02T12:33:32.311Z,24.30
2019-02-02T12:34:32.302Z,25.30
2019-02-02T12:35:32.312Z,25.10
2019-02-02T12:36:32.294Z,24.00
2019-02-02T12:37:32.266Z,26.20
2019-02-02T12:38:32.270Z,22.40
2019-02-02T12:39:32.260Z,24.00
2019-02-02T12:40:32.275Z,23.90
2019-02-02T12:41:32.244Z,23.20
2019-02-02T12:42:32.218Z,23.90
2019-02-02T12:43:32.207Z,23.30
2019-02-02T12:44:32.224Z,23.20
2019-02-02T12:45:33.774Z,22.40
2019-02-02T12:46:32.185Z,22.40
2019-02-02T12:47:32.176Z,22.40
2019-02-02T12:48:32.563Z,23.80
2019-02-02T12:49:32.154Z,23.50
2019-02-02T12:50:32.273Z,22.60
2019-02-02T12:51:32.167Z,22.50
2019-02-02T12:52:32.126Z,22.70
2019-02-02T12:53:32.120Z,22.40
2019-02-02T12:54:32.106Z,22.90
2019-02-02T12:55:32.116Z,22.00
2019-02-02T12:56:32.114Z,22.20
2019-02-02T12:57:32.073Z,23.30
2019-02-02T12:58:32.060Z,22.80
2019-02-02T12:59:32.047Z,20.90
2019-02-02T13:00:32.045Z,21.90
2019-02-02T13:01:32.057Z,22.50
2019-02-02T13:02:38.199Z,21.70
2019-02-02T13:03:33.015Z,23.30
2019-02-02T13:04:32.006Z,22.50
2019-02-02T13:05:31.986Z,25.10
2019-02-02T13:06:32.021Z,24.10
2019-02-02T13:07:31.966Z,26.20
2019-02-02T13:08:31.962Z,26.80
2019-02-02T13:09:31.952Z,26.90
2019-02-02T13:10:31.956Z,25.20
2019-02-02T13:11:31.950Z,25.40
2019-02-02T13:12:31.925Z,25.20
2019-02-02T13:13:31.922Z,24.90
2019-02-02T13:14:31.900Z,24.20
2019-02-02T13:15:31.904Z,25.00
2019-02-02T13:16:31.900Z,26.40
2019-02-02T13:17:31.866Z,27.90
2019-02-02T13:18:31.856Z,25.90
2019-02-02T13:19:31.892Z,27.60
2019-02-02T13:20:31.841Z,29.70
2019-02-02T13:21:31.864Z,28.30